Aeroporto :
LOGIN :

Iscrizione | Disclaimer

   EN    FR    IT 

 










Sommario :    VFR   VFR Marginale   IFR   IFR Intensivo   IFR Molto Intensivo
Visibilità : 
Base nubi : 
>= 8 km
>= 3000ft
5 / 8 km
1000 / 3000 ft
1500m / 5 km
500 / 1000 ft
800 / 1500m
200 / 500 ft
< 800m
< 200 ft
Simboli :   Temporali  Nebbia  Neve Forte  Precipitazioni Forti  Vento > 20 kt
SIGMETs :   Varie  Temporali  Ghiacco  Turbolenza  Onda orograficha  Ceneri Vulcaniche







- Altitudine del aeroporto : 294 ft
- Codice IATA : NAP


LIRN - Naples Capodichino

ULTIMO METAR :
  • 181220Z 21010KT 170V240 9999 FEW030 28/19 Q1014 NOSIG

METARs OBSOLETI :
  • 181150Z 20007KT 140V250 9999 FEW030 28/17 Q1014 NOSIG
  • 181120Z 21006KT 160V250 CAVOK 29/17 Q1014 NOSIG
  • 181050Z 20007KT 160V240 CAVOK 28/16 Q1014 NOSIG
  • 181020Z 22008KT 180V250 CAVOK 27/17 Q1014 NOSIG
  • 180950Z 22008KT 180V240 CAVOK 27/18 Q1014 NOSIG

TAF TAF LIRN
Valido dal 18 a 12 ore il 19 a 12 ore UTC


181100Z 1812/1912 21010KT CAVOK
BECMG 1816/1818 VRB05KT
Nessun NOTAM noto per questo aeroporto.



MetMap, La meteo Aeronautica in un colpo d'occhio ! - Copyright ORBIFLY Dicembre 2007 - Disclaimer

ORBIFLY MET'MAP TEAM :

Programmazione e sviluppo : Alexandra Zaïnal
Concezione e sviluppo : Baudouin d'Aumeries
Co-Programmazione e sviluppo : Marc-Olivier Méhu
Supporto tecnico e logistico : Manuel Goepfert
Aiuto per la traduzione : Arnaldo La Scala

Contatto : metmap@orbifly.com




FONTI E CREDITI :

   NOAA